createdAt,value
2017-07-25T00:00:03.059Z,13.1
2017-07-25T00:15:02.671Z,13.1
2017-07-25T00:30:04.286Z,13.1
2017-07-25T00:45:02.539Z,13.1
2017-07-25T01:00:03.262Z,13.1
2017-07-25T01:15:02.919Z,13.2
2017-07-25T01:30:02.555Z,13.1
2017-07-25T01:45:03.275Z,13.1
2017-07-25T02:00:06.794Z,13
2017-07-25T02:15:36.294Z,12.9
2017-07-25T02:30:02.932Z,12.8
2017-07-25T02:45:02.516Z,12.6
2017-07-25T03:00:03.123Z,12.8
2017-07-25T03:15:02.719Z,12.8
2017-07-25T03:30:03.429Z,12.9
2017-07-25T03:45:03.015Z,13
2017-07-25T04:00:05.264Z,13
2017-07-25T04:15:05.578Z,13
2017-07-25T04:30:06.606Z,13
2017-07-25T04:45:06.767Z,13.2
2017-07-25T05:00:05.680Z,13.4
2017-07-25T05:15:04.942Z,13.2
2017-07-25T05:30:06.159Z,13.3
2017-07-25T05:45:05.510Z,13.3
2017-07-25T06:00:08.510Z,13.5
2017-07-25T06:15:05.812Z,13.7
2017-07-25T06:30:05.172Z,13.8
2017-07-25T06:45:06.352Z,14.1
2017-07-25T07:00:05.757Z,14.4
2017-07-25T07:15:05.799Z,14.6
2017-07-25T07:30:04.204Z,14.8
2017-07-25T07:45:05.698Z,15.5
2017-07-25T08:00:05.068Z,15.9
2017-07-25T08:15:04.044Z,16.2
2017-07-25T08:30:04.294Z,16.8
2017-07-25T08:45:05.034Z,17.1
2017-07-25T09:00:04.213Z,18.4
2017-07-25T09:15:03.579Z,18.8
2017-07-25T09:30:04.790Z,18.7
2017-07-25T09:45:05.469Z,17.9
2017-07-25T10:00:07.400Z,19.3
2017-07-25T10:15:04.883Z,19.9
2017-07-25T10:30:06.069Z,19.7
2017-07-25T10:45:06.196Z,20.2
2017-07-25T11:00:06.630Z,21.2
2017-07-25T11:15:05.907Z,20.2
2017-07-25T11:30:04.686Z,19.2
2017-07-25T11:45:04.847Z,20
2017-07-25T12:00:04.004Z,20.1
2017-07-25T12:15:05.098Z,18.2
2017-07-25T12:30:04.731Z,16.2
2017-07-25T12:45:04.822Z,16.1
2017-07-25T13:00:04.690Z,15.4
2017-07-25T13:15:05.774Z,15.7
2017-07-25T13:30:04.800Z,15.3
2017-07-25T13:45:05.113Z,15.1
2017-07-25T14:00:04.209Z,14.8
2017-07-25T14:15:04.868Z,14.6
2017-07-25T14:30:06.490Z,15.1
2017-07-25T14:45:05.839Z,16.6
2017-07-25T15:00:03.922Z,17.2
2017-07-25T15:15:05.554Z,16.2
2017-07-25T15:30:04.707Z,15.8
2017-07-25T15:45:03.363Z,14.1
2017-07-25T16:00:04.572Z,14.4
2017-07-25T16:15:05.369Z,14.4
2017-07-25T16:30:05.585Z,14.5
2017-07-25T16:45:05.606Z,14.9
2017-07-25T17:00:05.395Z,14.5
2017-07-25T17:15:06.446Z,14.6
2017-07-25T17:30:05.335Z,14.4
2017-07-25T17:45:06.060Z,14.4
2017-07-25T18:00:06.137Z,14.3
2017-07-25T18:15:05.970Z,14.2
2017-07-25T18:30:05.343Z,14.1
2017-07-25T18:45:05.206Z,14
2017-07-25T19:00:05.147Z,13.9
2017-07-25T19:15:03.380Z,13.8
2017-07-25T19:30:03.014Z,13.6
2017-07-25T19:45:02.646Z,13.4
2017-07-25T20:00:03.245Z,13.2
2017-07-25T20:15:02.807Z,12.9
2017-07-25T20:30:03.480Z,12.9
2017-07-25T20:45:03.205Z,12.9
2017-07-25T21:00:02.804Z,12.7
2017-07-25T21:15:03.380Z,13
2017-07-25T21:30:03.048Z,13.1
2017-07-25T21:45:02.625Z,13.2
2017-07-25T22:00:03.177Z,13.1
2017-07-25T22:15:02.842Z,13.1
2017-07-25T22:30:02.525Z,13.1
2017-07-25T22:45:03.131Z,13.1
2017-07-25T23:00:02.685Z,13.1
2017-07-25T23:15:03.295Z,13.1
2017-07-25T23:30:02.966Z,13.1
2017-07-25T23:45:02.569Z,13.1
